Startpagina
METAR-TAF:

METAR-TAF

Vliegvelden :

Lahore, Pakistan

breedte: 31-31N, lengte: 074-24E, hoogte: 216 m

Actueel weer

Dit bericht is 44 minuten geleden gemaakt, om 10:55 UTC
Wind 5 kt uit het westnoordwesten
Temperatuur 21°C
Vochtigheid 33%
Druk 1022 hPa
Zicht: 6000 m

METAR: OPLA 151055Z 30005KT 6000 NSC 21/04 Q1022 NOSIG RMK QFE996 RMK A30.17

Tijdstip: 16:39 (11:39 UTC)

Verwachting

Dit bericht is 7 uur en het 49 minuten geleden gemaakt, om 03:50 UTC
Verwachting geldig van 15 om 06 UTC tot 16 om 12 UTC
Wind 5 kt uit het westnoordwesten
Zicht: 5000 m
Heiigheid
Van 15 om 1400 UTC
Zicht: 4000 m
rook
Wijzigt naar
van 16 om 01 UTC tot 16 om 04 UTC
Zicht: 1000 m
nevel
Wijzigt naar
van 16 om 04 UTC tot 16 om 06 UTC
Wind 3 kt uit het noordwesten
Zicht: 2500 m
rook
Van UTC
Wind 4 kt uit het westen
Zicht: 4000 m
Heiigheid

TAF: OPLA 150350Z 1506/1612 30005KT 5000 HZ NSC TX21/1510Z TN051601Z FM151400 VRB2KT 4000 FU NSC BECMG 1601/1604 1000 BR BECMG 1604/1606 31003KT 2500 FU FM 160600 27004KT 4000 HZ NSC

Waarnemingen en weersverwachtingen van meer dan 4000 vliegvelden (METAR en TAF).

De beschikbare stations zijn de gele en rode punten op de kaart.

Ga met uw muis naar het station om de naam te zien.

Klik dan om waarnemingen en weersverwachtingen te zien.

kaart wijzigen: klik op de groene knoppen met een zwart kruis om in te zoomen, op de groene knop met een streepje om uit te zoomen of op de groene pijlen voor aangrenzende kaarten.


METAR-TAF: